ID Time Temp Humidity Light PM2.5 PM10 Voltage Extra Firmware Position Fcnt TTN version Gateways Distance RSSI LSNR Radiosettings
2026-05-09 07:34:21 18.75°C 59.75% 3.38V v255 No position 4128 ttn.v3 - -92 -11 868.5MHz, SF12BW125, 4/5CR
- -113 -11.5 868.5MHz, SF12BW125, 4/5CR
2026-05-09 07:16:08 18.5625°C 59.875% 3.39V v255 No position 4127 ttn.v3 - -102 4.25 867.7MHz, SF9BW125, 4/5CR
2026-05-09 06:27:30 18.6875°C 58.9375% 3.39V v255 No position 4124 ttn.v3 - -102 2.5 868.1MHz, SF9BW125, 4/5CR
2026-05-09 05:55:04 19°C 59.5% 3.39V v255 No position 4122 ttn.v3 - -92 -11.75 868.5MHz, SF9BW125, 4/5CR
- -114 -14.25 868.5MHz, SF9BW125, 4/5CR
2026-05-09 05:38:52 19.125°C 59.9375% 3.39V v255 No position 4121 ttn.v3 - -102 4.75 867.1MHz, SF9BW125, 4/5CR
- -115 -11.75 867.1MHz, SF9BW125, 4/5CR
2026-05-09 05:22:39 19.125°C 59.9375% 3.39V v255 No position 4120 ttn.v3 - -97 -11 868.3MHz, SF9BW125, 4/5CR
2026-05-09 05:06:26 19.1875°C 59.9375% 3.39V v255 No position 4119 ttn.v3 - -103 2.25 867.9MHz, SF9BW125, 4/5CR
2026-05-09 04:50:13 19.25°C 59.875% 3.39V v255 No position 4118 ttn.v3 - -104 1.25 868.1MHz, SF9BW125, 4/5CR
2026-05-09 04:34:00 19.3125°C 60% 3.39V v255 No position 4117 ttn.v3 - -104 -2 867.7MHz, SF9BW125, 4/5CR
2026-05-09 04:17:47 19.3125°C 59.75% 3.39V v255 No position 4116 ttn.v3 - -93 -10.25 868.5MHz, SF9BW125, 4/5CR
- -115 -12.25 868.5MHz, SF9BW125, 4/5CR
2026-05-09 03:29:08 19.5625°C 60.0625% 3.39V v255 No position 4113 ttn.v3 - -109 3.25 867.3MHz, SF9BW125, 4/5CR
- -113 -12.25 867.3MHz, SF9BW125, 4/5CR
2026-05-09 03:12:56 19.5625°C 60.1875% 3.39V v255 No position 4112 ttn.v3 - -105 3 868.1MHz, SF9BW125, 4/5CR
2026-05-09 02:56:43 19.6875°C 60.5625% 3.39V v255 No position 4111 ttn.v3 - -105 -3.5 867.1MHz, SF9BW125, 4/5CR
- -115 -11 867.1MHz, SF9BW125, 4/5CR
2026-05-09 02:40:30 19.6875°C 60.5% 3.39V v255 No position 4110 ttn.v3 - -107 -13 868.5MHz, SF9BW125, 4/5CR
2026-05-09 02:24:17 19.6875°C 60.625% 3.39V v255 No position 4109 ttn.v3 - -103 5.5 867.9MHz, SF9BW125, 4/5CR
2026-05-09 01:51:51 19.75°C 60.4375% 3.39V v255 No position 4107 ttn.v3 - -105 3.5 867.7MHz, SF9BW125, 4/5CR
2026-05-09 01:35:38 19.8125°C 60.3125% 3.39V v255 No position 4106 ttn.v3 - -102 1.25 868.1MHz, SF9BW125, 4/5CR
2026-05-09 01:19:25 19.875°C 60.3125% 3.39V v255 No position 4105 ttn.v3 - -91 -9.25 867.5MHz, SF9BW125, 4/5CR
2026-05-09 01:03:12 19.875°C 60% 3.39V v255 No position 4104 ttn.v3 - -93 -11 868.5MHz, SF9BW125, 4/5CR
2026-05-09 00:46:59 19.9375°C 60.25% 3.39V v255 No position 4103 ttn.v3 - -99 -4.25 867.3MHz, SF9BW125, 4/5CR
- -113 -12 867.3MHz, SF9BW125, 4/5CR
2026-05-08 23:58:19 20.0625°C 59.875% 3.39V v255 No position 4100 ttn.v3 - -103 -2.25 868.1MHz, SF9BW125, 4/5CR
- -123 -13.5 868.1MHz, SF9BW125, 4/5CR
2026-05-08 23:42:06 20.25°C 60.8125% 3.39V v255 No position 4099 ttn.v3 - -103 4.5 867.9MHz, SF9BW125, 4/5CR
2026-05-08 23:25:53 20.3125°C 61.1875% 3.38V v255 No position 4098 ttn.v3 - -115 -10.5 868.5MHz, SF9BW125, 4/5CR
- -93 -11 868.5MHz, SF9BW125, 4/5CR
2026-05-08 23:09:40 20.375°C 61.375% 3.39V v255 No position 4097 ttn.v3 - -102 0.5 867.7MHz, SF9BW125, 4/5CR
2026-05-08 22:21:00 20.5625°C 62.0625% 3.38V v255 No position 4094 ttn.v3 - -103 -5.5 868.1MHz, SF9BW125, 4/5CR
2026-05-08 22:04:47 20.625°C 62.5625% 3.39V v255 No position 4093 ttn.v3 - -107 -1.75 867.3MHz, SF9BW125, 4/5CR
- -114 -10.25 867.3MHz, SF9BW125, 4/5CR
2026-05-08 21:48:34 20.625°C 63.3125% 3.39V v255 No position 4092 ttn.v3 - -92 -10.75 868.5MHz, SF9BW125, 4/5CR
2026-05-08 21:32:21 20.75°C 65.4375% 3.38V v255 No position 4091 ttn.v3 - -101 4.75 867.1MHz, SF9BW125, 4/5CR
2026-05-08 20:43:41 20.25°C 56.5% 3.39V v255 No position 4088 ttn.v3 - -100 -3.5 868.1MHz, SF9BW125, 4/5CR
2026-05-08 20:27:28 20.25°C 56.3125% 3.39V v255 No position 4087 ttn.v3 - -104 3.25 867.7MHz, SF9BW125, 4/5CR
2026-05-08 20:11:15 20.3125°C 56.5% 3.39V v255 No position 4086 ttn.v3 - -93 -9.5 868.5MHz, SF9BW125, 4/5CR
2026-05-08 19:55:02 20.375°C 57.125% 3.39V v255 No position 4085 ttn.v3 - -114 -9.75 867.5MHz, SF9BW125, 4/5CR
2026-05-08 19:22:35 20.5625°C 61.9375% 3.39V v255 No position 4083 ttn.v3 - -99 4.5 867.3MHz, SF9BW125, 4/5CR
- -113 -11.5 867.3MHz, SF9BW125, 4/5CR
2026-05-08 19:06:22 20.375°C 59.0625% 3.39V v255 No position 4082 ttn.v3 - -104 0 868.1MHz, SF9BW125, 4/5CR
2026-05-08 18:50:09 20.25°C 57.4375% 3.39V v255 No position 4081 ttn.v3 - -115 -8.75 867.1MHz, SF9BW125, 4/5CR
2026-05-08 18:33:56 20.125°C 55.5% 3.39V v255 No position 4080 ttn.v3 - -95 -8.75 868.5MHz, SF9BW125, 4/5CR
2026-05-08 18:17:43 19.9375°C 55% 3.39V v255 No position 4079 ttn.v3 - -104 3 867.9MHz, SF9BW125, 4/5CR
2026-05-08 17:45:17 19.875°C 53.875% 3.39V v255 No position 4077 ttn.v3 - -107 2 867.7MHz, SF9BW125, 4/5CR
2026-05-08 17:29:04 19.75°C 52.875% 3.39V v255 No position 4076 ttn.v3 - -100 -6.25 868.1MHz, SF9BW125, 4/5CR
2026-05-08 17:12:51 19.8125°C 53.1875% 3.39V v255 No position 4075 ttn.v3 - -112 -12.75 867.5MHz, SF9BW125, 4/5CR
2026-05-08 16:56:38 19.875°C 54.6875% 3.38V v255 No position 4074 ttn.v3 - -92 -12.5 868.5MHz, SF9BW125, 4/5CR
2026-05-08 16:40:25 19.875°C 56.9375% 3.39V v255 No position 4073 ttn.v3 - -103 -0.75 867.3MHz, SF9BW125, 4/5CR
- -114 -7.5 867.3MHz, SF9BW125, 4/5CR
2026-05-08 16:07:59 19.8125°C 56.625% 3.39V v255 No position 4071 ttn.v3 - -104 0.25 867.1MHz, SF9BW125, 4/5CR
- -113 -7.25 867.1MHz, SF9BW125, 4/5CR
2026-05-08 15:51:46 19.8125°C 56.25% 3.38V v255 No position 4070 ttn.v3 - -102 2 868.1MHz, SF9BW125, 4/5CR
2026-05-08 15:35:33 19.75°C 56.8125% 3.39V v255 No position 4069 ttn.v3 - -102 4.5 867.9MHz, SF9BW125, 4/5CR
2026-05-08 15:19:20 19.625°C 57.1875% 3.39V v255 No position 4068 ttn.v3 - -96 -10 868.5MHz, SF9BW125, 4/5CR
2026-05-08 15:03:07 19.6875°C 56.6875% 3.38V v255 No position 4067 ttn.v3 - -100 4.25 867.7MHz, SF9BW125, 4/5CR
2026-05-08 14:30:42 19.625°C 55.875% 3.38V v255 No position 4065 ttn.v3 - -115 -12.5 867.5MHz, SF9BW125, 4/5CR
2026-05-08 14:14:28 19.625°C 55.25% 3.39V v255 No position 4064 ttn.v3 - -104 1.75 868.1MHz, SF9BW125, 4/5CR
2026-05-08 13:58:15 19.625°C 55% 3.39V v255 No position 4063 ttn.v3 - -104 2.25 867.3MHz, SF9BW125, 4/5CR
- -114 -9 867.3MHz, SF9BW125, 4/5CR
2026-05-08 13:42:03 19.75°C 55.6875% 3.39V v255 No position 4062 ttn.v3 - -94 -11.5 868.5MHz, SF9BW125, 4/5CR
2026-05-08 13:25:50 19.75°C 56.8125% 3.39V v255 No position 4061 ttn.v3 - -105 3 867.1MHz, SF9BW125, 4/5CR
- -115 -6.75 867.1MHz, SF9BW125, 4/5CR
- -127 -13.75 867.1MHz, SF9BW125, 4/5CR
2026-05-08 12:53:24 19.6875°C 58.5% 3.39V v255 No position 4059 ttn.v3 - -104 4.75 867.9MHz, SF9BW125, 4/5CR
- -113 -10 867.9MHz, SF9BW125, 4/5CR
2026-05-08 12:37:11 19.625°C 59.1875% 3.39V v255 No position 4058 ttn.v3 - -104 -1.25 868.1MHz, SF9BW125, 4/5CR
2026-05-08 12:20:58 19.4375°C 59.0625% 3.39V v255 No position 4057 ttn.v3 - -102 1.5 867.7MHz, SF9BW125, 4/5CR
- -114 -13.25 867.7MHz, SF9BW125, 4/5CR
2026-05-08 11:48:32 19.0625°C 60.125% 3.39V v255 No position 4055 ttn.v3 - -112 -13.25 867.5MHz, SF9BW125, 4/5CR
2026-05-08 11:16:07 18.8125°C 61% 3.39V v255 No position 4053 ttn.v3 - -114 -10.75 867.3MHz, SF9BW125, 4/5CR
2026-05-08 10:59:54 18.625°C 61.375% 3.39V v255 No position 4052 ttn.v3 - -96 -9.75 868.1MHz, SF9BW125, 4/5CR
- -114 -11.5 868.1MHz, SF9BW125, 4/5CR
2026-05-08 10:43:42 18.4375°C 61.5625% 3.39V v255 No position 4051 ttn.v3 - -105 2.75 867.1MHz, SF9BW125, 4/5CR
- -113 -8.25 867.1MHz, SF9BW125, 4/5CR
2026-05-08 10:27:29 18.3125°C 62.0625% 3.39V v255 No position 4050 ttn.v3 - -113 -13 868.5MHz, SF9BW125, 4/5CR
2026-05-08 10:11:17 18.125°C 62.1875% 3.39V v255 No position 4049 ttn.v3 - -109 0.5 867.9MHz, SF9BW125, 4/5CR
- -122 -8.5 867.9MHz, SF9BW125, 4/5CR
- -115 -10.25 867.9MHz, SF9BW125, 4/5CR
2026-05-08 09:38:52 17.75°C 62.3125% 3.39V v255 No position 4047 ttn.v3 - -102 -3.25 867.7MHz, SF9BW125, 4/5CR
- -122 -9 867.7MHz, SF9BW125, 4/5CR
2026-05-08 09:22:40 17.625°C 61.9375% 3.39V v255 No position 4046 ttn.v3 - -105 -4.25 868.1MHz, SF9BW125, 4/5CR
- -122 -11.75 868.1MHz, SF9BW125, 4/5CR
2026-05-08 08:34:02 18.1875°C 62.5625% 3.39V v255 No position 4043 ttn.v3 - -103 -3 867.3MHz, SF9BW125, 4/5CR
- -113 -11.75 867.3MHz, SF9BW125, 4/5CR
2026-05-08 08:01:37 18.25°C 63.75% 3.39V v255 No position 4041 ttn.v3 - -104 1.5 867.1MHz, SF9BW125, 4/5CR
- -125 -9 867.1MHz, SF9BW125, 4/5CR
- -115 -10.25 867.1MHz, SF9BW125, 4/5CR
2026-05-08 07:29:13 18.25°C 67.375% 3.39V v255 No position 4039 ttn.v3 - -105 0 867.9MHz, SF9BW125, 4/5CR
2026-05-08 07:13:00 18.5°C 70.9375% 3.39V v255 No position 4038 ttn.v3 - -93 -10.75 868.5MHz, SF9BW125, 4/5CR
2026-05-08 06:08:10 18.4375°C 61.5625% 3.39V v255 No position 4034 ttn.v3 - -103 3.25 868.1MHz, SF9BW125, 4/5CR
2026-05-08 05:51:58 18.5°C 60.375% 3.39V v255 No position 4033 ttn.v3 - -101 5.75 867.3MHz, SF9BW125, 4/5CR
- -114 -9.75 867.3MHz, SF9BW125, 4/5CR
- -125 -11 867.3MHz, SF9BW125, 4/5CR
2026-05-08 05:37:56 18.6875°C 60.5% 3.38V v255 No position 4032 ttn.v3 - -93 -7 868.5MHz, SF12BW125, 4/5CR
- -114 -12.25 868.5MHz, SF12BW125, 4/5CR
- -113 -19.25 868.5MHz, SF12BW125, 4/5CR
2026-05-08 05:19:42 18.8125°C 60.4375% 3.39V v255 No position 4031 ttn.v3 - -101 5.25 867.1MHz, SF9BW125, 4/5CR
- -115 -8.5 867.1MHz, SF9BW125, 4/5CR
2026-05-08 05:03:30 18.8125°C 60.3125% 3.39V v255 No position 4030 ttn.v3 - -93 -7.5 868.3MHz, SF9BW125, 4/5CR
2026-05-08 04:47:17 18.75°C 60.375% 3.39V v255 No position 4029 ttn.v3 - -103 7 867.9MHz, SF9BW125, 4/5CR
2026-05-08 04:31:04 18.75°C 60.3125% 3.39V v255 No position 4028 ttn.v3 - -103 1.25 868.1MHz, SF9BW125, 4/5CR
2026-05-08 03:58:39 18.8125°C 60.125% 3.39V v255 No position 4026 ttn.v3 - -93 -8 868.5MHz, SF9BW125, 4/5CR
2026-05-08 03:42:26 18.6875°C 60.0625% 3.39V v255 No position 4025 ttn.v3 - -113 -9.75 867.5MHz, SF9BW125, 4/5CR
2026-05-08 03:26:14 18.75°C 59.75% 3.39V v255 No position 4024 ttn.v3 - -95 -8 868.3MHz, SF9BW125, 4/5CR
2026-05-08 03:10:01 18.8125°C 59.75% 3.39V v255 No position 4023 ttn.v3 - -101 5.25 867.3MHz, SF9BW125, 4/5CR
- -114 -8.5 867.3MHz, SF9BW125, 4/5CR
2026-05-08 02:53:48 19°C 59.5625% 3.39V v255 No position 4022 ttn.v3 - -103 4.75 868.1MHz, SF9BW125, 4/5CR
2026-05-08 02:37:35 19.0625°C 59.5625% 3.39V v255 No position 4021 ttn.v3 - -115 -8.25 867.1MHz, SF9BW125, 4/5CR
2026-05-08 02:21:23 19°C 59.4375% 3.39V v255 No position 4020 ttn.v3 - -95 -11 868.5MHz, SF9BW125, 4/5CR
2026-05-08 02:05:10 19.1875°C 59.25% 3.39V v255 No position 4019 ttn.v3 - -104 5.75 867.9MHz, SF9BW125, 4/5CR
2026-05-08 01:32:44 19.3125°C 59.125% 3.39V v255 No position 4017 ttn.v3 - -103 -0.75 867.7MHz, SF9BW125, 4/5CR
2026-05-08 01:16:31 19.3125°C 59.0625% 3.39V v255 No position 4016 ttn.v3 - -109 -3 868.1MHz, SF9BW125, 4/5CR
2026-05-08 00:44:06 19.3125°C 58.75% 3.39V v255 No position 4014 ttn.v3 - -90 -8.5 868.5MHz, SF9BW125, 4/5CR
2026-05-08 00:27:53 19.3125°C 58.625% 3.39V v255 No position 4013 ttn.v3 - -114 -9.75 867.3MHz, SF9BW125, 4/5CR
2026-05-08 00:11:40 19.375°C 58.125% 3.39V v255 No position 4012 ttn.v3 - -95 -8.5 868.3MHz, SF9BW125, 4/5CR
2026-05-07 23:39:14 19.3125°C 57.4375% 3.39V v255 No position 4010 ttn.v3 - -99 5.5 868.1MHz, SF9BW125, 4/5CR
2026-05-07 23:23:02 19.4375°C 56.9375% 3.39V v255 No position 4009 ttn.v3 - -117 -13.25 867.9MHz, SF9BW125, 4/5CR
2026-05-07 23:06:49 19.5625°C 56.625% 3.39V v255 No position 4008 ttn.v3 - -93 -8.75 868.5MHz, SF9BW125, 4/5CR
2026-05-07 22:50:36 19.875°C 56.8125% 3.38V v255 No position 4007 ttn.v3 - -104 4 867.7MHz, SF9BW125, 4/5CR
2026-05-07 22:18:10 20.0625°C 58.25% 3.38V v255 No position 4005 ttn.v3 - -114 -12.5 867.5MHz, SF9BW125, 4/5CR
2026-05-07 22:01:57 20.25°C 59.625% 3.39V v255 No position 4004 ttn.v3 - -105 2 868.1MHz, SF9BW125, 4/5CR
2026-05-07 21:45:44 20.3125°C 59.375% 3.39V v255 No position 4003 ttn.v3 - -99 3.5 867.3MHz, SF9BW125, 4/5CR
- -114 -8.5 867.3MHz, SF9BW125, 4/5CR
2026-05-07 21:29:31 20.3125°C 55% 3.39V v255 No position 4002 ttn.v3 - -95 -6.5 868.5MHz, SF9BW125, 4/5CR
- -112 -13 868.5MHz, SF9BW125, 4/5CR
2026-05-07 21:13:17 20.375°C 55.1875% 3.39V v255 No position 4001 ttn.v3 - -104 6.25 867.1MHz, SF9BW125, 4/5CR
- -114 -7.5 867.1MHz, SF9BW125, 4/5CR
2026-05-07 20:08:25 20.5°C 54.0625% 3.39V v255 No position 3997 ttn.v3 - -100 4.5 867.7MHz, SF9BW125, 4/5CR
- -113 -12.25 867.7MHz, SF9BW125, 4/5CR
2026-05-07 19:03:32 21°C 56.75% 3.38V v255 No position 3993 ttn.v3 - -103 -2 867.3MHz, SF9BW125, 4/5CR
- -114 -9 867.3MHz, SF9BW125, 4/5CR
2026-05-07 18:47:18 21.1875°C 59.5625% 3.39V v255 No position 3992 ttn.v3 - -101 2.5 868.1MHz, SF9BW125, 4/5CR
- -113 -12.75 868.1MHz, SF9BW125, 4/5CR
2026-05-07 18:31:05 21.375°C 64.25% 3.39V v255 No position 3991 ttn.v3 - -105 4.5 867.1MHz, SF9BW125, 4/5CR
- -115 -7 867.1MHz, SF9BW125, 4/5CR
2026-05-07 18:14:51 21.1875°C 61.4375% 3.39V v255 No position 3990 ttn.v3 - -95 -10.75 868.5MHz, SF9BW125, 4/5CR
2026-05-07 17:58:38 21.125°C 61.875% 3.38V v255 No position 3989 ttn.v3 - -104 5.5 867.9MHz, SF9BW125, 4/5CR
- -115 -11 867.9MHz, SF9BW125, 4/5CR
2026-05-07 17:26:11 21.25°C 61.125% 3.39V v255 No position 3987 ttn.v3 - -100 0.25 867.7MHz, SF9BW125, 4/5CR
- -113 -8.5 867.7MHz, SF9BW125, 4/5CR
- -120 -13.5 867.7MHz, SF9BW125, 4/5CR
2026-05-07 17:09:57 21.375°C 61.1875% 3.39V v255 No position 3986 ttn.v3 - -105 -1.25 868.1MHz, SF9BW125, 4/5CR
2026-05-07 16:53:44 21.1875°C 61.0625% 3.39V v255 No position 3985 ttn.v3 - -113 -8 867.5MHz, SF9BW125, 4/5CR
2026-05-07 16:37:30 21.125°C 61.4375% 3.39V v255 No position 3984 ttn.v3 - -112 -12 868.5MHz, SF9BW125, 4/5CR
2026-05-07 16:21:17 21°C 61.9375% 3.39V v255 No position 3983 ttn.v3 - -114 -5.25 867.3MHz, SF9BW125, 4/5CR
2026-05-07 16:05:04 21°C 62.4375% 3.39V v255 No position 3982 ttn.v3 - -114 -11.5 868.3MHz, SF9BW125, 4/5CR
2026-05-07 15:48:50 21°C 61.6875% 3.39V v255 No position 3981 ttn.v3 - -102 5.5 867.1MHz, SF9BW125, 4/5CR
- -115 -4.25 867.1MHz, SF9BW125, 4/5CR
2026-05-07 15:32:37 21.0625°C 62.375% 3.39V v255 No position 3980 ttn.v3 - -103 -3.25 868.1MHz, SF9BW125, 4/5CR
- -114 -7.25 868.1MHz, SF9BW125, 4/5CR
2026-05-07 15:16:24 21.0625°C 62.25% 3.39V v255 No position 3979 ttn.v3 - -104 6.75 867.9MHz, SF9BW125, 4/5CR
- -115 -7.5 867.9MHz, SF9BW125, 4/5CR
- -123 -9.5 867.9MHz, SF9BW125, 4/5CR
2026-05-07 15:00:10 21.0625°C 61.9375% 3.39V v255 No position 3978 ttn.v3 - -95 -9 868.5MHz, SF9BW125, 4/5CR
2026-05-07 14:43:57 21.0625°C 62% 3.39V v255 No position 3977 ttn.v3 - -101 2.25 867.7MHz, SF9BW125, 4/5CR
2026-05-07 14:11:30 21.1875°C 61.4375% 3.39V v255 No position 3975 ttn.v3 - -113 -7 867.5MHz, SF9BW125, 4/5CR
2026-05-07 13:55:17 21.25°C 61.375% 3.38V v255 No position 3974 ttn.v3 - -98 -2.5 868.1MHz, SF9BW125, 4/5CR
- -115 -11.25 868.1MHz, SF9BW125, 4/5CR
2026-05-07 13:39:03 21.0625°C 61.625% 3.39V v255 No position 3973 ttn.v3 - -103 3.25 867.3MHz, SF9BW125, 4/5CR
- -113 -7 867.3MHz, SF9BW125, 4/5CR
2026-05-07 13:06:37 20.75°C 61.625% 3.39V v255 No position 3971 ttn.v3 - -105 -1.5 867.1MHz, SF9BW125, 4/5CR
- -113 -6.75 867.1MHz, SF9BW125, 4/5CR
2026-05-07 12:50:24 20.75°C 61.625% 3.39V v255 No position 3970 ttn.v3 - -107 -10.75 868.3MHz, SF9BW125, 4/5CR
2026-05-07 12:34:10 20.8125°C 61.5625% 3.39V v255 No position 3969 ttn.v3 - -101 -0.75 867.9MHz, SF9BW125, 4/5CR
- -115 -11.75 867.9MHz, SF9BW125, 4/5CR
2026-05-07 12:17:57 20.6875°C 61.5% 3.39V v255 No position 3968 ttn.v3 - -97 -3.75 868.1MHz, SF9BW125, 4/5CR
2026-05-07 12:01:44 20.625°C 61.75% 3.39V v255 No position 3967 ttn.v3 - -103 -0.75 867.7MHz, SF9BW125, 4/5CR
- -113 -12.5 867.7MHz, SF9BW125, 4/5CR
2026-05-07 11:45:31 20.5625°C 62% 3.39V v255 No position 3966 ttn.v3 - -93 -10.5 868.5MHz, SF9BW125, 4/5CR
2026-05-07 10:56:51 20.375°C 63.125% 3.39V v255 No position 3963 ttn.v3 - -105 -0.75 867.3MHz, SF9BW125, 4/5CR
- -112 -7 867.3MHz, SF9BW125, 4/5CR
2026-05-07 10:40:38 20.3125°C 63.375% 3.38V v255 No position 3962 ttn.v3 - -103 -5.25 868.1MHz, SF9BW125, 4/5CR
- -103 -9.5 868.1MHz, SF9BW125, 4/5CR
2026-05-07 10:24:25 20.3125°C 63.3125% 3.39V v255 No position 3961 ttn.v3 - -104 -2.5 867.1MHz, SF9BW125, 4/5CR
- -115 -5 867.1MHz, SF9BW125, 4/5CR
2026-05-07 09:51:59 20.125°C 63.125% 3.39V v255 No position 3959 ttn.v3 - -97 -3.5 867.9MHz, SF9BW125, 4/5CR
- -114 -10.5 867.9MHz, SF9BW125, 4/5CR
2026-05-07 09:35:46 20.0625°C 63.6875% 3.39V v255 No position 3958 ttn.v3 - -113 -8.25 868.3MHz, SF9BW125, 4/5CR
2026-05-07 09:19:33 20°C 63.9375% 3.39V v255 No position 3957 ttn.v3 - -104 -0.5 867.7MHz, SF9BW125, 4/5CR
- -112 -12.25 867.7MHz, SF9BW125, 4/5CR
2026-05-07 09:03:20 19.9375°C 64.8125% 3.39V v255 No position 3956 ttn.v3 - -115 -4.75 868.1MHz, SF9BW125, 4/5CR
- -101 -5.25 868.1MHz, SF9BW125, 4/5CR
2026-05-07 08:47:07 19.875°C 64.5% 3.38V v255 No position 3955 ttn.v3 - -113 -5.75 867.5MHz, SF9BW125, 4/5CR
2026-05-07 08:14:41 19.8125°C 65.5% 3.39V v255 No position 3953 ttn.v3 - -105 0.5 867.3MHz, SF9BW125, 4/5CR
- -114 -7.5 867.3MHz, SF9BW125, 4/5CR
2026-05-07 07:58:28 19.75°C 66.1875% 3.39V v255 No position 3952 ttn.v3 - -114 -6.75 868.3MHz, SF9BW125, 4/5CR
2026-05-07 07:42:15 19.75°C 66.0625% 3.39V v255 No position 3951 ttn.v3 - -103 0.5 867.1MHz, SF9BW125, 4/5CR
- -112 -6.75 867.1MHz, SF9BW125, 4/5CR
2026-05-07 07:26:02 19.75°C 66.5% 3.38V v255 No position 3950 ttn.v3 - -105 -2.5 868.1MHz, SF9BW125, 4/5CR
- -113 -12.75 868.1MHz, SF9BW125, 4/5CR
2026-05-07 07:09:49 19.5625°C 64.875% 3.39V v255 No position 3949 ttn.v3 - -103 2.25 867.9MHz, SF9BW125, 4/5CR
- -113 -11.5 867.9MHz, SF9BW125, 4/5CR
2026-05-07 06:37:23 19.375°C 63.5625% 3.38V v255 No position 3947 ttn.v3 - -103 0 867.7MHz, SF9BW125, 4/5CR
- -113 -10.75 867.7MHz, SF9BW125, 4/5CR
2026-05-07 06:04:57 19.25°C 63.125% 3.39V v255 No position 3945 ttn.v3 - -112 -11.5 867.5MHz, SF9BW125, 4/5CR
2026-05-07 05:48:44 19.25°C 63.1875% 3.39V v255 No position 3944 ttn.v3 - -99 -1.75 868.1MHz, SF9BW125, 4/5CR
- -115 -10.75 868.1MHz, SF9BW125, 4/5CR
2026-05-07 05:32:32 19.25°C 63.1875% 3.39V v255 No position 3943 ttn.v3 - -103 0 867.3MHz, SF9BW125, 4/5CR
- -114 -9 867.3MHz, SF9BW125, 4/5CR
2026-05-07 05:16:19 19.25°C 63.25% 3.39V v255 No position 3942 ttn.v3 - -113 -8.25 868.5MHz, SF9BW125, 4/5CR
2026-05-07 05:00:06 19.3125°C 63.25% 3.39V v255 No position 3941 ttn.v3 - -105 0 867.1MHz, SF9BW125, 4/5CR
- -114 -7.25 867.1MHz, SF9BW125, 4/5CR
2026-05-07 04:27:40 19.375°C 63.4375% 3.39V v255 No position 3939 ttn.v3 - -105 5 867.9MHz, SF9BW125, 4/5CR
- -114 -11.5 867.9MHz, SF9BW125, 4/5CR
2026-05-07 04:11:27 19.4375°C 63.375% 3.39V v255 No position 3938 ttn.v3 - -99 0 868.1MHz, SF9BW125, 4/5CR
- -115 -11.75 868.1MHz, SF9BW125, 4/5CR
2026-05-07 03:55:14 19.5°C 63.375% 3.39V v255 No position 3937 ttn.v3 - -103 0.75 867.7MHz, SF9BW125, 4/5CR
- -113 -11.25 867.7MHz, SF9BW125, 4/5CR
- -124 -11.5 867.7MHz, SF9BW125, 4/5CR
2026-05-07 03:41:12 19.4375°C 63.5% 3.38V v255 No position 3936 ttn.v3 - -111 -7.25 868.5MHz, SF12BW125, 4/5CR
- -90 -12 868.5MHz, SF12BW125, 4/5CR
2026-05-07 03:22:59 19.4375°C 63.4375% 3.39V v255 No position 3935 ttn.v3 - -113 -12.75 867.5MHz, SF9BW125, 4/5CR
2026-05-07 02:50:33 19.5°C 63.5% 3.39V v255 No position 3933 ttn.v3 - -114 -10.75 867.3MHz, SF9BW125, 4/5CR
2026-05-07 02:34:20 19.5°C 63.625% 3.39V v255 No position 3932 ttn.v3 - -103 1 868.1MHz, SF9BW125, 4/5CR
- -115 -10.5 868.1MHz, SF9BW125, 4/5CR
2026-05-07 02:18:07 19.5625°C 63.6875% 3.38V v255 No position 3931 ttn.v3 - -111 -8.25 867.1MHz, SF9BW125, 4/5CR
2026-05-07 02:01:54 19.5625°C 63.75% 3.39V v255 No position 3930 ttn.v3 - -114 -10 868.5MHz, SF9BW125, 4/5CR
2026-05-07 01:45:41 19.5625°C 63.875% 3.39V v255 No position 3929 ttn.v3 - -103 3.75 867.9MHz, SF9BW125, 4/5CR
2026-05-07 01:13:15 19.5625°C 64.625% 3.39V v255 No position 3927 ttn.v3 - -99 1 867.7MHz, SF9BW125, 4/5CR
2026-05-07 00:57:02 19.5625°C 64.75% 3.39V v255 No position 3926 ttn.v3 - -104 -2.75 868.1MHz, SF9BW125, 4/5CR
- -113 -12.5 868.1MHz, SF9BW125, 4/5CR
2026-05-07 00:40:49 19.625°C 64.875% 3.39V v255 No position 3925 ttn.v3 - -114 -9.75 867.5MHz, SF9BW125, 4/5CR
2026-05-07 00:24:36 19.625°C 65.25% 3.39V v255 No position 3924 ttn.v3 - -114 -10.25 868.5MHz, SF9BW125, 4/5CR
2026-05-07 00:08:23 19.625°C 65.5625% 3.39V v255 No position 3923 ttn.v3 - -98 -4.25 867.3MHz, SF9BW125, 4/5CR
- -113 -11.75 867.3MHz, SF9BW125, 4/5CR
2026-05-06 23:35:57 19.6875°C 67.5% 3.38V v255 No position 3921 ttn.v3 - -102 1.75 867.1MHz, SF9BW125, 4/5CR
- -115 -11.5 867.1MHz, SF9BW125, 4/5CR
2026-05-06 23:19:44 19.75°C 68.9375% 3.38V v255 No position 3920 ttn.v3 - -105 -4.75 868.1MHz, SF9BW125, 4/5CR
- -115 -10.25 868.1MHz, SF9BW125, 4/5CR
2026-05-06 23:03:31 19.75°C 70.9375% 3.39V v255 No position 3919 ttn.v3 - -105 4.25 867.9MHz, SF9BW125, 4/5CR
2026-05-06 22:47:18 19.875°C 73.625% 3.39V v255 No position 3918 ttn.v3 - -114 -10 868.5MHz, SF9BW125, 4/5CR
- -95 -12 868.5MHz, SF9BW125, 4/5CR
2026-05-06 22:31:05 20.0625°C 78.4375% 3.39V v255 No position 3917 ttn.v3 - -104 2.25 867.7MHz, SF9BW125, 4/5CR
- -113 -10.25 867.7MHz, SF9BW125, 4/5CR
2026-05-06 21:58:39 19.875°C 76.1875% 3.39V v255 No position 3915 ttn.v3 - -112 -9 867.5MHz, SF9BW125, 4/5CR
2026-05-06 21:42:26 19.9375°C 77.125% 3.39V v255 No position 3914 ttn.v3 - -105 -4.25 868.1MHz, SF9BW125, 4/5CR
2026-05-06 21:26:13 19.8125°C 74.0625% 3.39V v255 No position 3913 ttn.v3 - -114 -11.5 867.3MHz, SF9BW125, 4/5CR
2026-05-06 21:10:00 19.5°C 66.1875% 3.39V v255 No position 3912 ttn.v3 - -114 -8 868.5MHz, SF9BW125, 4/5CR
2026-05-06 20:53:48 19.4375°C 66.125% 3.39V v255 No position 3911 ttn.v3 - -115 -7.5 867.1MHz, SF9BW125, 4/5CR
2026-05-06 20:21:22 19.375°C 67.9375% 3.39V v255 No position 3909 ttn.v3 - -103 -0.25 867.9MHz, SF9BW125, 4/5CR
- -115 -11.75 867.9MHz, SF9BW125, 4/5CR
2026-05-06 20:05:09 19.4375°C 68.125% 3.39V v255 No position 3908 ttn.v3 - -101 -5.25 868.1MHz, SF9BW125, 4/5CR
2026-05-06 19:48:56 19.125°C 62.375% 3.39V v255 No position 3907 ttn.v3 - -105 -4 867.7MHz, SF9BW125, 4/5CR
- -114 -9.75 867.7MHz, SF9BW125, 4/5CR
2026-05-06 19:32:44 19°C 61.6875% 3.39V v255 No position 3906 ttn.v3 - -118 -11.5 868.5MHz, SF9BW125, 4/5CR
- -92 -13.25 868.5MHz, SF9BW125, 4/5CR
2026-05-06 18:44:06 18.625°C 59.875% 3.39V v255 No position 3903 ttn.v3 - -101 0.25 867.3MHz, SF9BW125, 4/5CR
- -114 -12.25 867.3MHz, SF9BW125, 4/5CR
2026-05-06 18:11:41 17.75°C 52.9375% 3.39V v255 No position 3901 ttn.v3 - -115 -6.5 867.1MHz, SF9BW125, 4/5CR
2026-05-06 17:39:16 17.375°C 51.375% 3.39V v255 No position 3899 ttn.v3 - -105 0.75 867.9MHz, SF9BW125, 4/5CR
- -123 -10.75 867.9MHz, SF9BW125, 4/5CR
- -115 -11.75 867.9MHz, SF9BW125, 4/5CR
2026-05-06 17:06:51 17.5625°C 52.125% 3.39V v255 No position 3897 ttn.v3 - -102 2.25 867.7MHz, SF9BW125, 4/5CR
- -123 -8.75 867.7MHz, SF9BW125, 4/5CR
2026-05-06 16:34:26 18.4375°C 53.8125% 3.39V v255 No position 3895 ttn.v3 - -114 -12.5 867.5MHz, SF9BW125, 4/5CR
2026-05-06 16:02:01 19.125°C 62.6875% 3.39V v255 No position 3893 ttn.v3 - -114 -12.5 867.3MHz, SF9BW125, 4/5CR
2026-05-06 15:29:35 19.125°C 63.25% 3.39V v255 No position 3891 ttn.v3 - -125 -12.75 867.1MHz, SF9BW125, 4/5CR
2026-05-06 15:13:23 19.125°C 63.5% 3.39V v255 No position 3890 ttn.v3 - -103 -4.75 868.1MHz, SF9BW125, 4/5CR
2026-05-06 14:57:10 19.1875°C 63.5% 3.39V v255 No position 3889 ttn.v3 - -107 -0.25 867.9MHz, SF9BW125, 4/5CR
- -114 -8.5 867.9MHz, SF9BW125, 4/5CR
- -124 -12.5 867.9MHz, SF9BW125, 4/5CR
2026-05-06 14:24:44 19.125°C 64% 3.39V v255 No position 3887 ttn.v3 - -114 -13.5 867.7MHz, SF9BW125, 4/5CR
2026-05-06 13:52:19 19.0625°C 64.5% 3.39V v255 No position 3885 ttn.v3 - -114 -12 867.5MHz, SF9BW125, 4/5CR
2026-05-06 13:19:53 19°C 64.8125% 3.39V v255 No position 3883 ttn.v3 - -101 -7.25 867.3MHz, SF9BW125, 4/5CR
- -114 -8.5 867.3MHz, SF9BW125, 4/5CR
2026-05-06 13:03:40 19°C 65.0625% 3.39V v255 No position 3882 ttn.v3 - -114 -8.5 868.5MHz, SF9BW125, 4/5CR
- -96 -13.5 868.5MHz, SF9BW125, 4/5CR
2026-05-06 12:47:28 18.9375°C 65.4375% 3.39V v255 No position 3881 ttn.v3 - -106 -4 867.1MHz, SF9BW125, 4/5CR
- -113 -7.75 867.1MHz, SF9BW125, 4/5CR
2026-05-06 12:15:03 18.6875°C 66.625% 3.39V v255 No position 3879 ttn.v3 - -105 -0.5 867.9MHz, SF9BW125, 4/5CR
- -115 -9.25 867.9MHz, SF9BW125, 4/5CR
2026-05-06 11:26:25 18.5625°C 67.5% 3.39V v255 No position 3876 ttn.v3 - -114 -10.75 868.5MHz, SF9BW125, 4/5CR
2026-05-06 10:37:47 18.25°C 69.5% 3.38V v255 No position 3873 ttn.v3 - -114 -8 867.3MHz, SF9BW125, 4/5CR
2026-05-06 10:21:34 18.0625°C 70.25% 3.39V v255 No position 3872 ttn.v3 - -100 -10.75 868.1MHz, SF9BW125, 4/5CR
2026-05-06 10:05:22 17.9375°C 71.8125% 3.39V v255 No position 3871 ttn.v3 - -107 -2 867.1MHz, SF9BW125, 4/5CR
- -114 -12.75 867.1MHz, SF9BW125, 4/5CR
2026-05-06 09:49:10 17.875°C 72.125% 3.39V v255 No position 3870 ttn.v3 - -114 -10.5 868.5MHz, SF9BW125, 4/5CR
2026-05-06 09:32:57 17.75°C 71.125% 3.39V v255 No position 3869 ttn.v3 - -109 -3 867.9MHz, SF9BW125, 4/5CR
- -123 -11.25 867.9MHz, SF9BW125, 4/5CR
- -114 -12 867.9MHz, SF9BW125, 4/5CR
2026-05-06 09:16:45 17.6875°C 72.5% 3.39V v255 No position 3868 ttn.v3 - -109 -8 868.3MHz, SF9BW125, 4/5CR
2026-05-06 09:00:33 17.5°C 72.5625% 3.39V v255 No position 3867 ttn.v3 - -103 -4.5 867.7MHz, SF9BW125, 4/5CR
- -113 -13 867.7MHz, SF9BW125, 4/5CR
2026-05-06 08:44:20 17.4375°C 71.5% 3.39V v255 No position 3866 ttn.v3 - -105 -3.75 868.1MHz, SF9BW125, 4/5CR
- -115 -9.5 868.1MHz, SF9BW125, 4/5CR
2026-05-06 08:28:08 17.25°C 72% 3.39V v255 No position 3865 ttn.v3 - -114 -12 867.5MHz, SF9BW125, 4/5CR
2026-05-06 07:55:44 17.125°C 74.75% 3.39V v255 No position 3863 ttn.v3 - -114 -10 867.3MHz, SF9BW125, 4/5CR
2026-05-06 07:23:19 16.9375°C 77.375% 3.39V v255 No position 3861 ttn.v3 - -103 3.75 867.1MHz, SF9BW125, 4/5CR
- -113 -7.75 867.1MHz, SF9BW125, 4/5CR
2026-05-06 07:07:07 16.5°C 70.3125% 3.39V v255 No position 3860 ttn.v3 - -104 -2.75 868.1MHz, SF9BW125, 4/5CR
- -115 -7.25 868.1MHz, SF9BW125, 4/5CR
2026-05-06 06:50:55 16.1875°C 69.75% 3.39V v255 No position 3859 ttn.v3 - -101 0 867.9MHz, SF9BW125, 4/5CR
2026-05-06 06:34:43 15.9375°C 70.375% 3.39V v255 No position 3858 ttn.v3 - -113 -8.5 868.5MHz, SF9BW125, 4/5CR

Message count: 200
Node count: 1

Messages per node

Number of messages in list aboveNodes
200

Statistics per gateway

GatewayNumber of messagesNumber of nodesNodes
1531
1291
151
11

Filter by dataset